Latest Coastal Weather Observations for Neptune Island

IDS60701

Issued at 8:01 pm CST Saturday 24 June 2017 (issued every 10 minutes, with the page automatically refreshed every 10 minutes)

About coastal observations | Map of coastal stations | Coastal observations for SA | Marine services | Other Formats
Station Details ID: 018115 Name: NEPTUNE ISLAND Lat: -35.34 Lon: 136.12 Height: 32.0 m
Data from the previous 72 hours. | See also: Recent months at Neptune Island
Date/Time
CST
Temp
°C
Wind Pressure Rain since
9am
mm
Weather Cloud Vis
km
Sea
Height
m
Swell
Dir  Spd
kts
Gust
kts
hPa Trend Height
m
Period
s
Dir
24/08:00pm 13.9 SSE 9 11 1018.5 - 0.0 - - - - - - -
24/07:30pm 13.9 S 12 15 1018.4 - 0.0 - - - - - - -
24/07:00pm 14.5 SW 11 15 1018.3 - 0.0 - - - - - - -
24/06:30pm 14.4 WSW 12 14 1018.2 - 0.0 - - - - - - -
24/06:00pm 14.5 WSW 14 16 1018.0 - 0.0 - - - - - - -
24/05:30pm 14.2 SW 10 12 1017.9 - 0.0 - - - - - - -
24/05:00pm 14.5 WSW 9 13 1018.1 - 0.0 - - - - - - -
24/04:30pm 14.8 SW 7 9 1018.1 - 0.0 - - - - - - -
24/04:00pm 14.3 SW 8 10 1018.1 - 0.0 - - - - - - -
24/03:30pm 15.0 SW 10 12 1018.1 - 0.0 - - - - - - -
24/03:00pm 15.1 SW 9 11 1018.0 - 0.0 - - - - - - -
24/02:30pm 15.4 SW 8 9 1018.0 - 0.0 - - - - - - -
24/02:00pm 15.3 SW 7 8 1018.2 - 0.0 - - - - - - -
24/01:30pm 15.9 SSW 7 10 1018.4 - 0.0 - - - - - - -
24/01:00pm 16.2 S 8 10 1018.7 - 0.0 - - - - - - -
24/12:30pm 15.5 SW 6 8 1018.9 - 0.0 - - - - - - -
24/12:00pm 15.5 SSW 7 8 1019.3 - 0.0 - - - - - - -
24/11:30am 15.1 SSW 6 7 1019.7 - 0.0 - - - - - - -
24/11:00am 15.0 SSW 7 9 1020.1 - 0.0 - - - - - - -
24/10:30am 14.8 S 9 11 1020.2 - 0.0 - - - - - - -
24/10:00am 14.8 S 7 9 1020.1 - 0.0 - - - - - - -
24/09:30am 15.1 SSE 6 9 1019.7 - 0.0 - - - - - - -
24/09:00am 14.7 SE 7 10 1019.3 - 1.0 - - - - - - -
24/08:30am 14.5 S 7 8 1019.4 - 1.0 - - - - - - -
24/08:00am 14.4 SSW 9 11 1019.4 - 1.0 - - - - - - -
24/07:30am 14.4 S 9 11 1019.1 - 1.0 - - - - - - -
24/07:00am 14.5 SSE 7 10 1018.8 - 1.0 - - - - - - -
24/06:30am 14.3 SSE 9 11 1018.6 - 1.0 - - - - - - -
24/06:00am 14.0 S 10 13 1018.5 - 1.0 - - - - - - -
24/05:30am 14.1 SSE 11 13 1018.3 - 1.0 - - - - - - -
24/05:00am 14.2 SSE 10 13 1018.3 - 1.0 - - - - - - -
24/04:30am 14.8 SSE 10 13 1018.4 - 0.0 - - - - - - -
24/04:00am 14.7 SSE 9 11 1018.4 - 0.0 - - - - - - -
24/03:30am 14.6 SSE 8 11 1018.4 - 0.0 - - - - - - -
24/03:00am 14.8 SSE 9 11 1018.4 - 0.0 - - - - - - -
24/02:30am 15.3 SSE 9 11 1018.4 - 0.0 - - - - - - -
24/02:00am 15.1 SSE 9 12 1018.2 - 0.0 - - - - - - -
24/01:30am 15.1 SSE 7 9 1018.4 - 0.0 - - - - - - -
24/01:00am 15.0 SSE 8 9 1018.2 - 0.0 - - - - - - -
24/12:30am 15.0 SSE 8 9 1018.3 - 0.0 - - - - - - -
24/12:00am 14.9 SSE 11 13 1018.2 - 0.0 - - - - - - -
 
Date/Time
CST
Temp
°C
Wind Pressure Rain since
9am
mm
Weather Cloud Vis
km
Sea
Height
m
Swell
Dir  Spd
kts
Gust
kts
hPa Trend Height
m
Period
s
Dir
23/11:30pm 15.0 SSE 11 13 1018.4 - 0.0 - - - - - - -
23/11:00pm 15.2 SSE 10 12 1018.7 - 0.0 - - - - - - -
23/10:30pm 15.4 SSE 10 13 1018.7 - 0.0 - - - - - - -
23/10:00pm 15.3 SSE 12 14 1018.5 - 0.0 - - - - - - -
23/09:30pm 15.6 SSE 13 15 1018.4 - 0.0 - - - - - - -
23/09:00pm 15.8 SSE 11 14 1018.3 - 0.0 - - - - - - -
23/08:30pm 15.9 S 11 14 1018.1 - 0.0 - - - - - - -
23/08:00pm 16.0 S 13 15 1017.8 - 0.0 - - - - - - -
23/07:30pm 16.4 SSW 9 13 1017.6 - 0.0 - - - - - - -
23/07:00pm 16.1 SSW 7 8 1017.3 - 0.0 - - - - - - -
23/06:30pm 16.2 SW 9 11 1017.1 - 0.0 - - - - - - -
23/06:00pm 16.3 WSW 7 9 1016.8 - 0.0 - - - - - - -
23/05:30pm 16.2 W 6 7 1016.5 - 0.0 - - - - - - -
23/05:00pm 16.9 W 6 7 1016.2 - 0.0 - - - - - - -
23/04:30pm 17.2 W 7 9 1016.2 - 0.0 - - - - - - -
23/04:00pm 17.4 W 8 9 1016.2 - 0.0 - - - - - - -
23/03:30pm 17.5 WSW 9 11 1016.2 - 0.0 - - - - - - -
23/03:00pm 17.8 W 8 9 1016.0 - 0.0 - - - - - - -
23/02:30pm 17.7 W 8 10 1016.0 - 0.0 - - - - - - -
23/02:00pm 17.7 W 9 10 1016.2 - 0.0 - - - - - - -
23/01:30pm 17.7 W 11 12 1016.6 - 0.0 - - - - - - -
23/01:00pm 18.0 WNW 9 11 1016.9 - 0.0 - - - - - - -
23/12:30pm 17.4 WNW 8 9 1016.9 - 0.0 - - - - - - -
23/12:00pm 17.4 WNW 9 11 1017.3 - 0.0 - - - - - - -
23/11:30am 17.2 WNW 10 12 1017.7 - 0.0 - - - - - - -
23/11:00am 17.4 NW 9 10 1017.8 - 0.0 - - - - - - -
23/10:30am 17.1 WNW 8 9 1017.7 - 0.0 - - - - - - -
23/10:00am 16.9 WNW 7 9 1017.8 - 0.0 - - - - - - -
23/09:30am 16.8 WNW 7 8 1017.5 - 0.0 - - - - - - -
23/09:00am 16.3 WNW 6 8 1017.1 - - - - - - - - -
23/08:30am 15.7 WNW 8 8 1017.2 - - - - - - - - -
23/08:00am 15.5 WNW 8 9 1017.2 - - - - - - - - -
23/07:30am 15.5 WNW 8 9 1016.9 - - - - - - - - -
23/07:00am 15.6 NW 9 11 1017.1 - - - - - - - - -
23/06:30am 15.5 NW 10 12 1017.0 - - - - - - - - -
23/06:00am 15.5 WNW 8 9 1016.7 - - - - - - - - -
23/05:30am 15.3 WNW 7 9 1016.5 - - - - - - - - -
23/05:00am 15.0 NW 9 10 1016.6 - - - - - - - - -
23/04:30am 15.1 NNW 8 9 1016.6 - - - - - - - - -
23/04:00am 14.7 NNW 7 9 1016.9 - - - - - - - - -
23/03:30am 15.0 NNW 7 8 1017.3 - - - - - - - - -
23/03:00am 15.2 NNW 9 10 1017.7 - - - - - - - - -
23/02:30am 14.6 N 7 8 1017.7 - 0.0 - - - - - - -
23/02:00am 14.7 N 6 6 1017.7 - 0.0 - - - - - - -
23/01:30am 14.8 N 8 9 1017.7 - 0.0 - - - - - - -
23/01:00am 14.9 N 9 11 1018.2 - 0.0 - - - - - - -
23/12:30am 14.9 N 11 13 1018.4 - 0.0 - - - - - - -
23/12:00am 15.1 N 12 13 1018.6 - 0.0 - - - - - - -
 
Date/Time
CST
Temp
°C
Wind Pressure Rain since
9am
mm
Weather Cloud Vis
km
Sea
Height
m
Swell
Dir  Spd
kts
Gust
kts
hPa Trend Height
m
Period
s
Dir
22/11:30pm 15.4 N 12 14 1018.9 - 0.0 - - - - - - -
22/11:00pm 15.2 NNE 11 12 1019.3 - 0.0 - - - - - - -
22/10:30pm 15.1 NNE 10 11 1019.5 - 0.0 - - - - - - -
22/10:00pm 14.7 NNE 9 10 1019.7 - 0.0 - - - - - - -
22/09:30pm 14.6 NNE 8 9 1020.1 - 0.0 - - - - - - -
22/09:00pm 14.5 NNE 6 7 1020.1 - 0.0 - - - - - - -
22/08:30pm 14.9 NNE 5 7 1019.9 - 0.0 - - - - - - -
22/08:00pm 14.5 NNE 6 7 1020.3 - 0.0 - - - - - - -
22/07:30pm 14.7 N 5 6 1020.3 - 0.0 - - - - - - -
22/07:00pm 14.6 N 6 7 1020.0 - 0.0 - - - - - - -
22/06:30pm 14.9 N 6 7 1020.1 - 0.0 - - - - - - -
22/06:00pm 14.9 N 7 8 1020.0 - 0.0 - - - - - - -
22/05:30pm 15.1 NNE 9 10 1020.0 - 0.0 - - - - - - -
22/05:00pm 15.7 NNE 7 8 1020.1 - 0.0 - - - - - - -
22/04:30pm 16.5 NNE 5 7 1020.1 - 0.0 - - - - - - -
22/04:00pm 16.9 NNE 6 7 1020.1 - 0.0 - - - - - - -
22/03:30pm 16.5 NNE 7 8 1020.3 - 0.0 - - - - - - -
22/03:00pm 17.4 N 8 9 1020.3 - 0.0 - - - - - - -
22/02:30pm 17.4 NNE 8 10 1020.3 - 0.0 - - - - - - -
22/02:00pm 17.4 NNE 9 11 1020.6 - 0.0 - - - - - - -
22/01:30pm 17.5 N 8 10 1021.1 - 0.0 - - - - - - -
22/01:00pm 17.7 N 9 11 1021.4 - 0.0 - - - - - - -
22/12:30pm 17.1 N 9 10 1022.0 - 0.0 - - - - - - -
22/12:00pm 17.3 N 9 11 1022.6 - 0.0 - - - - - - -
22/11:30am 17.0 N 10 12 1023.1 - 0.0 - - - - - - -
22/11:00am 17.0 N 9 11 1023.6 - 0.0 - - - - - - -
22/10:30am 17.0 N 9 11 1024.2 - 0.0 - - - - - - -
22/10:00am 16.6 N 9 11 1024.4 - 0.0 - - - - - - -
22/09:30am 16.5 N 9 11 1024.4 - 0.0 - - - - - - -
22/09:00am 15.8 N 10 12 1024.3 - 0.0 - - - - - - -
22/08:30am 15.4 N 9 11 1024.2 - 0.0 - - - - - - -
22/08:00am 14.7 N 10 11 1024.1 - 0.0 - - - - - - -
22/07:30am 14.7 N 10 12 1024.1 - 0.0 - - - - - - -
22/07:00am 14.7 NNE 13 15 1023.7 - 0.0 - - - - - - -
22/06:30am 14.8 NNE 14 16 1023.5 - 0.0 - - - - - - -
22/06:00am 15.0 NNE 12 15 1023.2 - 0.0 - - - - - - -
22/05:30am 14.9 NE 9 12 1023.3 - 0.0 - - - - - - -
22/05:00am 14.7 NE 9 11 1023.5 - 0.0 - - - - - - -
22/04:30am 14.8 NE 11 14 1023.5 - 0.0 - - - - - - -
22/04:00am 14.7 NE 13 17 1023.4 - 0.0 - - - - - - -
22/03:30am 14.8 NE 12 16 1023.6 - 0.0 - - - - - - -
22/03:00am 14.6 NE 12 15 1023.9 - 0.0 - - - - - - -
22/02:30am 14.7 NE 12 16 1024.1 - 0.0 - - - - - - -
22/02:00am 14.9 NE 15 18 1024.4 - 0.0 - - - - - - -
22/01:30am 14.8 ENE 13 16 1024.3 - 0.0 - - - - - - -
22/01:00am 14.9 E 12 14 1024.4 - 0.0 - - - - - - -
22/12:30am 14.8 ENE 10 11 1024.9 - 0.0 - - - - - - -
22/12:00am 14.9 ENE 10 11 1025.2 - 0.0 - - - - - - -
 
Date/Time
CST
Temp
°C
Wind Pressure Rain since
9am
mm
Weather Cloud Vis
km
Sea
Height
m
Swell
Dir  Spd
kts
Gust
kts
hPa Trend Height
m
Period
s
Dir
21/11:30pm 14.9 ENE 10 11 1025.3 - 0.0 - - - - - - -
21/11:00pm 14.8 E 9 11 1025.7 - 0.0 - - - - - - -
21/10:30pm 14.3 E 8 9 1025.7 - 0.0 - - - - - - -
21/10:00pm 14.0 E 7 9 1026.0 - 0.0 - - - - - - -
21/09:30pm 14.0 ESE 5 6 1026.1 - 0.0 - - - - - - -
21/09:00pm 14.0 E 5 6 1026.2 - 0.0 - - - - - - -
21/08:30pm 14.7 ENE 5 6 1026.4 - 0.0 - - - - - - -

Other Formats:

Comma delimited format used in spreadsheet applications
http://www.bom.gov.au/fwo/IDS60701/IDS60701.94804.axf

JavaScript Object Notation format (JSON) in row-major order
http://www.bom.gov.au/fwo/IDS60701/IDS60701.94804.json